createdAt,value
2023-02-11T00:00:31.615Z,-1.88
2023-02-11T00:01:31.485Z,-1.90
2023-02-11T00:02:31.636Z,-1.90
2023-02-11T00:03:31.672Z,-1.90
2023-02-11T00:04:31.545Z,-1.88
2023-02-11T00:05:31.505Z,-1.86
2023-02-11T00:06:31.554Z,-1.84
2023-02-11T00:07:31.547Z,-1.81
2023-02-11T00:08:31.544Z,-1.77
2023-02-11T00:09:31.946Z,-1.73
2023-02-11T00:10:31.523Z,-1.67
2023-02-11T00:11:31.448Z,-1.63
2023-02-11T00:12:32.178Z,-1.60
2023-02-11T00:13:31.454Z,-1.55
2023-02-11T00:14:31.327Z,-1.49
2023-02-11T00:15:31.560Z,-1.48
2023-02-11T00:16:31.318Z,-1.49
2023-02-11T00:17:31.458Z,-1.45
2023-02-11T00:18:31.345Z,-1.41
2023-02-11T00:19:31.440Z,-1.41
2023-02-11T00:20:31.269Z,-1.37
2023-02-11T00:21:31.529Z,-1.39
2023-02-11T00:22:31.315Z,-1.45
2023-02-11T00:23:31.375Z,-1.44
2023-02-11T00:24:31.316Z,-1.44
2023-02-11T00:25:31.396Z,-1.44
2023-02-11T00:26:31.253Z,-1.47
2023-02-11T00:27:31.188Z,-1.47
2023-02-11T00:28:32.104Z,-1.54
2023-02-11T00:29:31.166Z,-1.59
2023-02-11T00:30:31.294Z,-1.60
2023-02-11T00:31:31.307Z,-1.60
2023-02-11T00:32:31.443Z,-1.63
2023-02-11T00:33:31.172Z,-1.65
2023-02-11T00:34:31.281Z,-1.67
2023-02-11T00:35:31.145Z,-1.72
2023-02-11T00:36:31.245Z,-1.75
2023-02-11T00:37:31.270Z,-1.78
2023-02-11T00:38:31.191Z,-1.80
2023-02-11T00:39:31.206Z,-1.80
2023-02-11T00:40:31.211Z,-1.80
2023-02-11T00:41:31.137Z,-1.80
2023-02-11T00:42:30.951Z,-1.84
2023-02-11T00:43:31.080Z,-1.86
2023-02-11T00:44:30.970Z,-1.91
2023-02-11T00:45:31.199Z,-1.91
2023-02-11T00:46:31.071Z,-1.94
2023-02-11T00:47:31.115Z,-1.94
2023-02-11T00:48:30.982Z,-1.96
2023-02-11T00:49:31.252Z,-1.99
2023-02-11T00:50:30.993Z,-2.01
2023-02-11T00:51:31.314Z,-2.02
2023-02-11T00:52:30.971Z,-2.02
2023-02-11T00:53:31.048Z,-2.05
2023-02-11T00:54:30.960Z,-2.09
2023-02-11T00:55:31.071Z,-2.17
2023-02-11T00:56:31.060Z,-2.17
2023-02-11T00:57:30.939Z,-2.19
2023-02-11T00:58:31.009Z,-2.17
2023-02-11T00:59:30.848Z,-2.19
2023-02-11T01:00:31.038Z,-2.20
2023-02-11T01:01:31.046Z,-2.22
2023-02-11T01:02:30.972Z,-2.23
2023-02-11T01:03:30.970Z,-2.26
2023-02-11T01:04:31.002Z,-2.26
2023-02-11T01:05:30.819Z,-2.33
2023-02-11T01:06:31.011Z,-2.35
2023-02-11T01:07:30.784Z,-2.42
2023-02-11T01:08:31.004Z,-2.60
2023-02-11T01:09:30.924Z,-2.74
2023-02-11T01:10:30.914Z,-2.80
2023-02-11T01:11:30.793Z,-2.84
2023-02-11T01:12:30.687Z,-2.84
2023-02-11T01:13:30.822Z,-2.85
2023-02-11T01:14:30.639Z,-2.90
2023-02-11T01:15:31.005Z,-2.98
2023-02-11T01:16:30.634Z,-3.02
2023-02-11T01:17:31.024Z,-3.06
2023-02-11T01:18:30.625Z,-3.03
2023-02-11T01:19:30.787Z,-3.06
2023-02-11T01:20:30.615Z,-3.11
2023-02-11T01:21:30.873Z,-3.06
2023-02-11T01:22:30.664Z,-3.11
2023-02-11T01:23:30.838Z,-3.13
2023-02-11T01:24:30.655Z,-3.20
2023-02-11T01:25:30.774Z,-3.24
2023-02-11T01:26:30.647Z,-3.28
2023-02-11T01:27:30.836Z,-3.34
2023-02-11T01:28:30.651Z,-3.37
2023-02-11T01:29:30.479Z,-3.39
2023-02-11T01:30:30.676Z,-3.37
2023-02-11T01:31:30.644Z,-3.34
2023-02-11T01:32:30.714Z,-3.28
2023-02-11T01:33:30.554Z,-3.23
2023-02-11T01:34:30.610Z,-3.24
2023-02-11T01:35:30.538Z,-3.39
2023-02-11T01:36:30.595Z,-3.39
2023-02-11T01:37:30.505Z,-3.34
2023-02-11T01:38:30.596Z,-3.35
2023-02-11T01:39:30.575Z,-3.32
2023-02-11T01:40:30.717Z,-3.24
2023-02-11T01:41:30.605Z,-3.35
2023-02-11T01:42:30.585Z,-3.39
2023-02-11T01:43:30.469Z,-3.42
2023-02-11T01:44:30.337Z,-3.39
2023-02-11T01:45:30.574Z,-3.37
2023-02-11T01:46:30.356Z,-3.38
2023-02-11T01:47:30.545Z,-3.34
2023-02-11T01:48:30.396Z,-3.32
2023-02-11T01:49:30.575Z,-3.32
2023-02-11T01:50:30.325Z,-3.31
2023-02-11T01:51:30.580Z,-3.29
2023-02-11T01:52:30.336Z,-3.26
2023-02-11T01:53:30.436Z,-3.26
2023-02-11T01:54:30.367Z,-3.28
2023-02-11T01:55:30.423Z,-3.21
2023-02-11T01:56:30.327Z,-3.17
2023-02-11T01:57:30.478Z,-3.16
2023-02-11T01:58:30.334Z,-3.13
2023-02-11T01:59:30.159Z,-3.11
2023-02-11T02:00:30.305Z,-3.11
2023-02-11T02:01:30.232Z,-3.13
2023-02-11T02:02:30.389Z,-3.11
2023-02-11T02:03:30.191Z,-3.17
2023-02-11T02:04:30.376Z,-3.18
2023-02-11T02:05:31.221Z,-3.17
2023-02-11T02:06:30.358Z,-3.18
2023-02-11T02:07:30.269Z,-3.10
2023-02-11T02:08:30.367Z,-3.06
2023-02-11T02:09:30.937Z,-3.09
2023-02-11T02:10:31.544Z,-3.14
2023-02-11T02:11:32.934Z,-3.11
2023-02-11T02:12:30.962Z,-3.13
2023-02-11T02:13:30.201Z,-3.11
2023-02-11T02:14:30.733Z,-3.10
2023-02-11T02:15:31.049Z,-3.09
2023-02-11T02:16:30.109Z,-3.10
2023-02-11T02:17:30.215Z,-3.09
2023-02-11T02:18:29.997Z,-3.18
2023-02-11T02:19:30.162Z,-3.28
2023-02-11T02:20:30.052Z,-3.37
2023-02-11T02:21:30.221Z,-3.39
2023-02-11T02:22:30.032Z,-3.38
2023-02-11T02:23:30.162Z,-3.41
2023-02-11T02:24:30.022Z,-3.38
2023-02-11T02:25:30.123Z,-3.37
2023-02-11T02:26:29.993Z,-3.35
2023-02-11T02:27:30.182Z,-3.34
2023-02-11T02:28:30.079Z,-3.32
2023-02-11T02:29:30.066Z,-3.34
2023-02-11T02:30:29.984Z,-3.32
2023-02-11T02:31:29.884Z,-3.32
2023-02-11T02:32:30.073Z,-3.37
2023-02-11T02:33:29.902Z,-3.34
2023-02-11T02:34:30.029Z,-3.29
2023-02-11T02:35:29.876Z,-3.28
2023-02-11T02:36:30.179Z,-3.28
2023-02-11T02:37:29.861Z,-3.28
2023-02-11T02:38:29.961Z,-3.28
2023-02-11T02:39:29.900Z,-3.24
2023-02-11T02:40:30.013Z,-3.28
2023-02-11T02:41:29.944Z,-3.26
2023-02-11T02:42:29.909Z,-3.23
2023-02-11T02:43:29.918Z,-3.23
2023-02-11T02:44:29.909Z,-3.26
2023-02-11T02:45:29.921Z,-3.29
2023-02-11T02:46:29.956Z,-3.29
2023-02-11T02:47:29.851Z,-3.32
2023-02-11T02:48:29.681Z,-3.31
2023-02-11T02:49:29.925Z,-3.26
2023-02-11T02:50:29.733Z,-3.24
2023-02-11T02:51:29.943Z,-3.21
2023-02-11T02:52:29.662Z,-3.20
2023-02-11T02:53:29.842Z,-3.18
2023-02-11T02:54:30.878Z,-3.16
2023-02-11T02:55:29.864Z,-3.17
2023-02-11T02:56:30.455Z,-3.20
2023-02-11T02:57:30.904Z,-3.17
2023-02-11T02:58:30.543Z,-3.17
2023-02-11T02:59:29.814Z,-3.20
2023-02-11T03:00:29.806Z,-3.20
2023-02-11T03:01:29.777Z,-3.20
2023-02-11T03:02:29.836Z,-3.20
2023-02-11T03:03:30.570Z,-3.17
2023-02-11T03:04:29.784Z,-3.18
2023-02-11T03:05:30.586Z,-3.26
2023-02-11T03:06:29.798Z,-3.26
2023-02-11T03:07:29.612Z,-3.23
2023-02-11T03:08:29.714Z,-3.21
2023-02-11T03:09:29.723Z,-3.20
2023-02-11T03:10:29.777Z,-3.20
2023-02-11T03:11:29.554Z,-3.18
2023-02-11T03:12:28.853Z,-3.20
2023-02-11T03:13:29.534Z,-3.18
2023-02-11T03:14:29.614Z,-3.24
2023-02-11T03:15:29.645Z,-3.26
2023-02-11T03:16:29.680Z,-3.29
2023-02-11T03:17:29.625Z,-3.34
2023-02-11T03:18:29.574Z,-3.37
2023-02-11T03:19:30.194Z,-3.37
2023-02-11T03:20:29.320Z,-3.38
2023-02-11T03:21:29.645Z,-3.44
2023-02-11T03:22:29.417Z,-3.46
2023-02-11T03:23:29.572Z,-3.46
2023-02-11T03:24:30.396Z,-3.42
2023-02-11T03:25:29.534Z,-3.44
2023-02-11T03:26:30.332Z,-3.49
2023-02-11T03:27:29.606Z,-3.49
2023-02-11T03:28:29.421Z,-3.50
2023-02-11T03:29:29.423Z,-3.50
2023-02-11T03:30:29.365Z,-3.50
2023-02-11T03:31:31.142Z,-3.46
2023-02-11T03:32:29.354Z,-3.46
2023-02-11T03:33:29.680Z,-3.44
2023-02-11T03:34:29.381Z,-3.46
2023-02-11T03:35:29.205Z,-3.44
2023-02-11T03:36:29.316Z,-3.42
2023-02-11T03:37:29.234Z,-3.46
2023-02-11T03:38:29.388Z,-3.44
2023-02-11T03:39:29.355Z,-3.39
2023-02-11T03:40:29.371Z,-3.38
2023-02-11T03:41:29.255Z,-3.37
2023-02-11T03:42:29.317Z,-3.49
2023-02-11T03:43:29.214Z,-3.52
2023-02-11T03:44:29.313Z,-3.50
2023-02-11T03:45:29.310Z,-3.49
2023-02-11T03:46:29.404Z,-3.47
2023-02-11T03:47:29.216Z,-3.44
2023-02-11T03:48:29.255Z,-3.47
2023-02-11T03:49:29.154Z,-3.44
2023-02-11T03:50:29.045Z,-3.42
2023-02-11T03:51:29.214Z,-3.42
2023-02-11T03:52:29.062Z,-3.38
2023-02-11T03:53:29.234Z,-3.37
2023-02-11T03:54:29.054Z,-3.37
2023-02-11T03:55:29.353Z,-3.37
2023-02-11T03:56:29.217Z,-3.35
2023-02-11T03:57:29.240Z,-3.35
2023-02-11T03:58:28.994Z,-3.37
2023-02-11T03:59:29.165Z,-3.32
2023-02-11T04:00:29.044Z,-3.34
2023-02-11T04:01:29.201Z,-3.34
2023-02-11T04:02:29.095Z,-3.32
2023-02-11T04:03:29.301Z,-3.29
2023-02-11T04:04:29.084Z,-3.28
2023-02-11T04:05:29.116Z,-3.24
2023-02-11T04:06:29.033Z,-3.21
2023-02-11T04:07:28.900Z,-3.21
2023-02-11T04:08:29.044Z,-3.21
2023-02-11T04:09:28.985Z,-3.18
2023-02-11T04:10:29.074Z,-3.17
2023-02-11T04:11:28.885Z,-3.16
2023-02-11T04:12:29.055Z,-3.16
2023-02-11T04:13:28.854Z,-3.11
2023-02-11T04:14:29.016Z,-3.06
2023-02-11T04:15:28.945Z,-3.13
2023-02-11T04:16:28.989Z,-3.17
2023-02-11T04:17:28.895Z,-3.10
2023-02-11T04:18:28.974Z,-3.09
2023-02-11T04:19:28.889Z,-3.03
2023-02-11T04:20:28.988Z,-2.98
2023-02-11T04:21:28.971Z,-3.09
2023-02-11T04:22:28.706Z,-3.09
2023-02-11T04:23:28.905Z,-2.99
2023-02-11T04:24:28.775Z,-2.99
2023-02-11T04:25:28.964Z,-3.02
2023-02-11T04:26:28.825Z,-2.98
2023-02-11T04:27:29.177Z,-2.95
2023-02-11T04:28:28.827Z,-2.85
2023-02-11T04:29:28.925Z,-2.85
2023-02-11T04:30:28.825Z,-2.95
2023-02-11T04:31:28.991Z,-2.96
2023-02-11T04:32:28.761Z,-2.95
2023-02-11T04:33:28.897Z,-2.75
2023-02-11T04:34:28.772Z,-2.59
2023-02-11T04:35:28.774Z,-2.57
2023-02-11T04:36:28.788Z,-2.54
2023-02-11T04:37:28.860Z,-2.46
2023-02-11T04:38:29.525Z,-2.42
2023-02-11T04:39:29.380Z,-2.41
2023-02-11T04:40:28.756Z,-2.49
2023-02-11T04:41:28.649Z,-2.62
2023-02-11T04:42:28.748Z,-2.63
2023-02-11T04:43:28.656Z,-2.64
2023-02-11T04:44:28.784Z,-2.69
2023-02-11T04:45:28.673Z,-2.71
2023-02-11T04:46:28.736Z,-2.71
2023-02-11T04:47:28.496Z,-2.63
2023-02-11T04:48:28.688Z,-2.62
2023-02-11T04:49:28.717Z,-2.63
2023-02-11T04:50:28.696Z,-2.57
2023-02-11T04:51:29.336Z,-2.60
2023-02-11T04:52:28.888Z,-2.57
2023-02-11T04:53:28.598Z,-2.54
2023-02-11T04:54:28.689Z,-2.49
2023-02-11T04:55:28.804Z,-2.42
2023-02-11T04:56:28.410Z,-2.41
2023-02-11T04:57:31.866Z,-2.41
2023-02-11T04:58:28.498Z,-2.36
2023-02-11T04:59:28.658Z,-2.29
2023-02-11T05:00:28.606Z,-2.29
2023-02-11T05:01:28.989Z,-2.23
2023-02-11T05:02:28.617Z,-2.22
2023-02-11T05:03:29.455Z,-2.19
2023-02-11T05:04:28.516Z,-2.23
2023-02-11T05:05:28.529Z,-2.19
2023-02-11T05:06:28.486Z,-2.17
2023-02-11T05:07:28.546Z,-2.17
2023-02-11T05:08:29.404Z,-2.12
2023-02-11T05:09:28.406Z,-2.12
2023-02-11T05:10:29.307Z,-2.09
2023-02-11T05:11:28.275Z,-2.11
2023-02-11T05:12:28.441Z,-2.09
2023-02-11T05:13:28.245Z,-2.17
2023-02-11T05:14:28.415Z,-2.22
2023-02-11T05:15:28.342Z,-2.22
2023-02-11T05:16:28.494Z,-2.22
2023-02-11T05:17:28.354Z,-2.19
2023-02-11T05:18:28.425Z,-2.20
2023-02-11T05:19:28.244Z,-2.30
2023-02-11T05:20:28.446Z,-2.42
2023-02-11T05:21:29.007Z,-2.56
2023-02-11T05:22:28.345Z,-2.64
2023-02-11T05:23:28.319Z,-2.69
2023-02-11T05:24:28.330Z,-2.75
2023-02-11T05:25:28.298Z,-2.74
2023-02-11T05:26:28.156Z,-2.67
2023-02-11T05:27:28.327Z,-2.67
2023-02-11T05:28:28.248Z,-2.80
2023-02-11T05:29:28.294Z,-2.82
2023-02-11T05:30:28.336Z,-2.80
2023-02-11T05:31:28.334Z,-2.74
2023-02-11T05:32:28.836Z,-2.75
2023-02-11T05:33:28.386Z,-2.77
2023-02-11T05:34:28.176Z,-2.77
2023-02-11T05:35:28.277Z,-2.90
2023-02-11T05:36:28.215Z,-2.85
2023-02-11T05:37:28.302Z,-2.84
2023-02-11T05:38:28.137Z,-2.81
2023-02-11T05:39:29.146Z,-2.80
2023-02-11T05:40:28.157Z,-2.81
2023-02-11T05:41:28.005Z,-2.90
2023-02-11T05:42:28.125Z,-2.92
2023-02-11T05:43:28.056Z,-3.03
2023-02-11T05:44:28.878Z,-3.09
2023-02-11T05:45:28.075Z,-3.21
2023-02-11T05:46:28.123Z,-3.17
2023-02-11T05:47:27.954Z,-3.24
2023-02-11T05:48:28.099Z,-3.21
2023-02-11T05:49:27.900Z,-3.20
2023-02-11T05:50:28.136Z,-3.17
2023-02-11T05:51:27.985Z,-3.16
2023-02-11T05:52:27.984Z,-3.13
2023-02-11T05:53:27.966Z,-3.14
2023-02-11T05:54:28.094Z,-3.11
2023-02-11T05:55:27.965Z,-3.10
2023-02-11T05:56:27.989Z,-3.09
2023-02-11T05:57:27.995Z,-3.09
2023-02-11T05:58:27.755Z,-3.05
2023-02-11T05:59:27.937Z,-3.06
2023-02-11T06:00:27.802Z,-3.05
2023-02-11T06:01:27.930Z,-3.02
2023-02-11T06:02:27.863Z,-3.03
2023-02-11T06:03:28.265Z,-3.02
2023-02-11T06:04:27.744Z,-3.03
2023-02-11T06:05:27.889Z,-3.05
2023-02-11T06:06:27.751Z,-2.99
2023-02-11T06:07:27.874Z,-2.96
2023-02-11T06:08:27.744Z,-2.93
2023-02-11T06:09:27.955Z,-2.93
2023-02-11T06:10:27.788Z,-2.84
2023-02-11T06:11:27.844Z,-2.85
2023-02-11T06:12:27.724Z,-2.64
2023-02-11T06:13:27.615Z,-2.46
2023-02-11T06:14:27.794Z,-2.48
2023-02-11T06:15:27.665Z,-2.27
2023-02-11T06:16:27.908Z,-2.05
2023-02-11T06:17:27.591Z,-2.02
2023-02-11T06:18:27.755Z,-1.87
2023-02-11T06:19:27.604Z,-1.77
2023-02-11T06:20:27.776Z,-1.72
2023-02-11T06:21:42.483Z,-1.66
2023-02-11T06:22:27.774Z,-1.73
2023-02-11T06:23:30.255Z,-1.62
2023-02-11T06:24:54.645Z,-1.52
2023-02-11T06:25:28.353Z,-1.39
2023-02-11T06:26:27.740Z,-1.13
2023-02-11T06:27:27.709Z,-0.53
2023-02-11T06:28:27.710Z,-0.14
2023-02-11T06:29:27.595Z,0.07
2023-02-11T06:30:27.454Z,0.39
2023-02-11T06:31:27.748Z,0.64
2023-02-11T06:32:43.340Z,0.77
2023-02-11T06:33:27.675Z,1.01
2023-02-11T06:34:27.427Z,1.13
2023-02-11T06:35:27.556Z,1.22
2023-02-11T06:36:27.446Z,1.31
2023-02-11T06:37:27.556Z,1.36
2023-02-11T06:38:27.399Z,1.45
2023-02-11T06:39:27.616Z,1.49
2023-02-11T06:40:27.419Z,1.48
2023-02-11T06:41:27.573Z,1.52
2023-02-11T06:42:27.473Z,1.66
2023-02-11T06:43:27.496Z,1.65
2023-02-11T06:44:27.461Z,1.76
2023-02-11T06:45:27.365Z,1.83
2023-02-11T06:46:27.466Z,1.85
2023-02-11T06:47:27.337Z,1.88
2023-02-11T06:48:27.448Z,1.76
2023-02-11T06:49:27.336Z,1.77
2023-02-11T06:50:27.466Z,1.91
2023-02-11T06:51:27.329Z,1.85
2023-02-11T06:52:27.436Z,1.91
2023-02-11T06:53:27.285Z,1.85
2023-02-11T06:54:27.402Z,1.92
2023-02-11T06:55:27.355Z,1.90
2023-02-11T06:56:27.568Z,1.83
2023-02-11T06:57:27.336Z,1.72
2023-02-11T06:58:27.356Z,1.77
2023-02-11T06:59:27.296Z,1.83
2023-02-11T07:00:27.128Z,1.98
2023-02-11T07:01:27.285Z,2.04
2023-02-11T07:02:27.143Z,1.94
2023-02-11T07:03:27.365Z,1.94
2023-02-11T07:04:27.107Z,1.94
2023-02-11T07:05:27.305Z,1.94
2023-02-11T07:06:27.156Z,2.07
2023-02-11T07:07:27.279Z,2.14
2023-02-11T07:08:27.107Z,2.27
2023-02-11T07:09:27.316Z,2.55
2023-02-11T07:10:27.156Z,2.61
2023-02-11T07:11:27.249Z,2.79
2023-02-11T07:12:27.142Z,2.68
2023-02-11T07:13:27.196Z,2.61
2023-02-11T07:14:27.171Z,2.61
2023-02-11T07:15:27.086Z,2.61
2023-02-11T07:16:27.205Z,2.64
2023-02-11T07:17:26.985Z,2.63
2023-02-11T07:18:27.319Z,2.61
2023-02-11T07:19:26.977Z,2.57
2023-02-11T07:20:27.218Z,2.58
2023-02-11T07:21:27.046Z,2.71
2023-02-11T07:22:27.129Z,2.86
2023-02-11T07:23:26.966Z,2.86
2023-02-11T07:24:27.118Z,2.76
2023-02-11T07:25:27.020Z,2.85
2023-02-11T07:26:27.120Z,2.88
2023-02-11T07:27:27.316Z,2.71
2023-02-11T07:28:27.076Z,2.70
2023-02-11T07:29:27.007Z,2.71
2023-02-11T07:30:27.045Z,2.70
2023-02-11T07:31:27.219Z,2.58
2023-02-11T07:32:26.807Z,2.73
2023-02-11T07:33:27.107Z,2.74
2023-02-11T07:34:26.792Z,2.88
2023-02-11T07:35:27.010Z,2.81
2023-02-11T07:36:26.776Z,2.74
2023-02-11T07:37:27.036Z,2.65
2023-02-11T07:38:26.889Z,2.70
2023-02-11T07:39:27.012Z,2.85
2023-02-11T07:40:26.867Z,3.03
2023-02-11T07:41:26.905Z,3.15
2023-02-11T07:42:26.818Z,3.12
2023-02-11T07:43:26.875Z,3.03
2023-02-11T07:44:26.798Z,2.86
2023-02-11T07:45:26.954Z,2.86
2023-02-11T07:46:26.853Z,3.03
2023-02-11T07:47:26.646Z,3.07
2023-02-11T07:48:26.831Z,3.19
2023-02-11T07:49:26.664Z,3.24
2023-02-11T07:50:26.774Z,3.21
2023-02-11T07:51:26.749Z,3.25
2023-02-11T07:52:26.867Z,3.47
2023-02-11T07:53:26.655Z,3.52
2023-02-11T07:54:26.754Z,3.51
2023-02-11T07:55:26.736Z,3.48
2023-02-11T07:56:26.796Z,3.54
2023-02-11T07:57:26.759Z,3.62
2023-02-11T07:58:26.654Z,3.47
2023-02-11T07:59:26.634Z,3.33
2023-02-11T08:00:26.720Z,3.27
2023-02-11T08:01:26.735Z,3.54
2023-02-11T08:02:26.628Z,3.58
2023-02-11T08:03:26.731Z,3.55
2023-02-11T08:04:26.466Z,3.51
2023-02-11T08:05:26.680Z,3.54
2023-02-11T08:06:26.514Z,3.43
2023-02-11T08:07:26.641Z,3.25
2023-02-11T08:08:26.544Z,3.27
2023-02-11T08:09:26.699Z,3.12
2023-02-11T08:10:26.750Z,3.22
2023-02-11T08:11:26.604Z,3.24
2023-02-11T08:12:26.493Z,3.10
2023-02-11T08:13:26.683Z,3.29
2023-02-11T08:14:26.500Z,3.43
2023-02-11T08:15:26.748Z,3.44
2023-02-11T08:16:47.785Z,3.52
2023-02-11T08:17:26.332Z,3.64
2023-02-11T08:18:26.501Z,3.62
2023-02-11T08:19:26.272Z,3.74
2023-02-11T08:20:26.538Z,3.86
2023-02-11T08:21:26.425Z,3.92
2023-02-11T08:22:26.530Z,4.01
2023-02-11T08:23:26.314Z,4.16
2023-02-11T08:24:26.499Z,4.18
2023-02-11T08:25:26.351Z,4.26
2023-02-11T08:26:26.440Z,4.31
2023-02-11T08:27:26.404Z,4.34
2023-02-11T08:28:26.597Z,4.40
2023-02-11T08:29:26.318Z,4.46
2023-02-11T08:30:27.576Z,4.58
2023-02-11T08:31:26.455Z,4.61
2023-02-11T08:32:26.419Z,4.58
2023-02-11T08:33:26.410Z,4.71
2023-02-11T08:34:26.310Z,4.95
2023-02-11T08:35:26.430Z,5.25
2023-02-11T08:36:26.140Z,5.19
2023-02-11T08:37:26.353Z,5.22
2023-02-11T08:38:26.230Z,5.03
2023-02-11T08:39:26.492Z,4.95
2023-02-11T08:40:26.168Z,4.79
2023-02-11T08:41:26.310Z,4.61
2023-02-11T08:42:26.260Z,4.51
2023-02-11T08:43:26.339Z,4.33
2023-02-11T08:44:26.333Z,4.41
2023-02-11T08:45:26.191Z,4.48
2023-02-11T08:46:26.174Z,4.28
2023-02-11T08:47:26.220Z,4.41
2023-02-11T08:48:26.138Z,4.45
2023-02-11T08:49:26.008Z,4.46
2023-02-11T08:50:26.301Z,4.46
2023-02-11T08:51:26.060Z,4.53
2023-02-11T08:52:26.170Z,4.43
2023-02-11T08:53:26.040Z,4.37
2023-02-11T08:54:26.329Z,4.38
2023-02-11T08:55:26.040Z,4.31
2023-02-11T08:56:26.200Z,4.26
2023-02-11T08:57:26.071Z,4.31
2023-02-11T08:58:26.153Z,4.30
2023-02-11T08:59:26.003Z,4.31
2023-02-11T09:00:26.069Z,4.35
2023-02-11T09:01:26.247Z,4.41
2023-02-11T09:02:26.163Z,4.49
2023-02-11T09:03:26.061Z,4.37
2023-02-11T09:04:26.062Z,4.30
2023-02-11T09:05:26.041Z,4.35
2023-02-11T09:06:25.894Z,4.56
2023-02-11T09:07:25.985Z,4.69
2023-02-11T09:08:25.929Z,4.79
2023-02-11T09:09:25.990Z,4.73
2023-02-11T09:10:26.059Z,4.77
2023-02-11T09:11:25.970Z,5.01
2023-02-11T09:12:25.842Z,5.10
2023-02-11T09:13:25.975Z,5.17
2023-02-11T09:14:26.030Z,5.26
2023-02-11T09:15:25.941Z,5.31
2023-02-11T09:16:25.929Z,5.24
2023-02-11T09:17:25.989Z,5.14
2023-02-11T09:18:26.039Z,5.19
2023-02-11T09:19:25.893Z,5.25
2023-02-11T09:20:25.913Z,5.29
2023-02-11T09:21:25.692Z,5.36
2023-02-11T09:22:25.872Z,5.68
2023-02-11T09:23:25.661Z,5.80
2023-02-11T09:24:25.864Z,5.90
2023-02-11T09:25:25.755Z,6.08
2023-02-11T09:26:25.885Z,6.16
2023-02-11T09:27:25.660Z,6.26
2023-02-11T09:28:25.778Z,6.15
2023-02-11T09:29:25.751Z,6.10
2023-02-11T09:30:25.803Z,6.16
2023-02-11T09:31:25.938Z,6.22
2023-02-11T09:32:25.862Z,6.35
2023-02-11T09:33:25.685Z,6.29
2023-02-11T09:34:25.810Z,6.21
2023-02-11T09:35:25.670Z,5.95
2023-02-11T09:36:25.643Z,5.90
2023-02-11T09:37:25.844Z,6.00
2023-02-11T09:38:25.742Z,6.21
2023-02-11T09:39:25.730Z,6.29
2023-02-11T09:40:26.163Z,6.10
2023-02-11T09:41:25.622Z,6.13
2023-02-11T09:42:25.539Z,6.19
2023-02-11T09:43:25.638Z,6.22
2023-02-11T09:44:25.775Z,6.11
2023-02-11T09:45:25.658Z,5.90
2023-02-11T09:46:25.813Z,5.92
2023-02-11T09:47:25.681Z,5.89
2023-02-11T09:48:25.646Z,5.83
2023-02-11T09:49:25.642Z,5.71
2023-02-11T09:50:25.600Z,5.72
2023-02-11T09:51:25.432Z,5.83
2023-02-11T09:52:25.557Z,5.97
2023-02-11T09:53:25.484Z,6.07
2023-02-11T09:54:25.526Z,6.18
2023-02-11T09:55:25.525Z,6.24
2023-02-11T09:56:25.627Z,6.18
2023-02-11T09:57:29.089Z,6.05
2023-02-11T09:58:25.515Z,6.08
2023-02-11T09:59:25.490Z,6.05
2023-02-11T10:00:25.505Z,6.05
2023-02-11T10:01:25.407Z,5.97
2023-02-11T10:02:25.521Z,6.00
2023-02-11T10:03:25.356Z,5.87
2023-02-11T10:04:25.220Z,5.94
2023-02-11T10:05:25.405Z,5.87
2023-02-11T10:06:25.320Z,5.79
2023-02-11T10:07:25.383Z,5.85
2023-02-11T10:08:25.312Z,5.82
2023-02-11T10:09:25.377Z,5.87
2023-02-11T10:10:25.245Z,5.97
2023-02-11T10:11:31.594Z,6.16
2023-02-11T10:13:53.135Z,6.27
2023-02-11T10:13:58.241Z,6.29
2023-02-11T10:14:58.857Z,6.37
2023-02-11T10:15:58.982Z,6.57
2023-02-11T10:16:58.775Z,6.41
2023-02-11T10:17:59.035Z,6.41
2023-02-11T10:18:59.786Z,6.47
2023-02-11T10:19:59.049Z,6.60
2023-02-11T10:20:58.859Z,6.56
2023-02-11T10:21:58.684Z,6.57
2023-02-11T10:22:58.821Z,6.56
2023-02-11T10:23:58.876Z,6.59
2023-02-11T10:24:58.926Z,6.81
2023-02-11T10:25:58.861Z,6.92
2023-02-11T10:26:58.966Z,6.67
2023-02-11T10:27:58.840Z,6.65
2023-02-11T10:28:58.816Z,6.83
2023-02-11T10:29:58.676Z,6.99
2023-02-11T10:30:58.984Z,6.99
2023-02-11T10:31:59.223Z,6.80
2023-02-11T10:32:58.801Z,6.59
2023-02-11T10:33:58.693Z,6.59
2023-02-11T10:34:58.761Z,6.80
2023-02-11T10:35:58.806Z,6.89
2023-02-11T10:36:58.546Z,6.89
2023-02-11T10:37:58.681Z,6.89
2023-02-11T10:38:58.526Z,6.95
2023-02-11T10:39:58.676Z,7.13
2023-02-11T10:40:58.507Z,7.21
2023-02-11T10:41:58.748Z,7.34
2023-02-11T10:42:58.746Z,7.35
2023-02-11T10:43:59.016Z,7.52
2023-02-11T10:44:58.496Z,7.39
2023-02-11T10:45:58.765Z,7.59
2023-02-11T10:46:59.176Z,7.62
2023-02-11T10:47:59.085Z,7.66
2023-02-11T10:48:58.645Z,7.49
2023-02-11T10:49:58.606Z,7.25
2023-02-11T10:50:58.518Z,7.29
2023-02-11T10:51:58.432Z,7.25
2023-02-11T10:52:58.527Z,7.11
2023-02-11T10:53:58.427Z,7.07
2023-02-11T10:54:59.401Z,7.07
2023-02-11T10:55:58.478Z,7.18
2023-02-11T10:56:58.586Z,7.26
2023-02-11T10:57:58.345Z,7.36
2023-02-11T10:58:58.567Z,7.44
2023-02-11T10:59:58.520Z,7.25
2023-02-11T11:00:58.642Z,7.28
2023-02-11T11:01:58.396Z,7.36
2023-02-11T11:02:58.497Z,7.41
2023-02-11T11:03:59.388Z,7.49
2023-02-11T11:04:58.586Z,7.36
2023-02-11T11:05:58.855Z,7.25
2023-02-11T11:06:58.345Z,7.20
2023-02-11T11:07:58.396Z,7.23
2023-02-11T11:08:58.208Z,7.32
2023-02-11T11:09:58.345Z,7.31
2023-02-11T11:10:58.175Z,7.16
2023-02-11T11:11:58.506Z,7.08
2023-02-11T11:12:58.266Z,6.92
2023-02-11T11:13:57.505Z,6.96
2023-02-11T11:14:58.209Z,6.80
2023-02-11T11:16:01.653Z,6.78
2023-02-11T11:16:58.143Z,6.81
2023-02-11T11:18:15.344Z,6.88
2023-02-11T11:18:59.008Z,6.88
2023-02-11T11:19:58.315Z,6.84
2023-02-11T11:20:58.166Z,6.93
2023-02-11T11:21:58.035Z,6.91
2023-02-11T11:22:58.206Z,6.83
2023-02-11T11:23:57.966Z,6.92
2023-02-11T11:24:58.265Z,6.85
2023-02-11T11:25:58.020Z,6.88
2023-02-11T11:26:58.174Z,6.85
2023-02-11T11:27:58.105Z,6.89
2023-02-11T11:28:58.166Z,6.91
2023-02-11T11:29:58.075Z,6.88
2023-02-11T11:30:58.465Z,6.92
2023-02-11T11:31:58.082Z,6.88
2023-02-11T11:32:58.146Z,6.93
2023-02-11T11:33:58.067Z,6.98
2023-02-11T11:34:58.096Z,6.93
2023-02-11T11:35:58.015Z,7.03
2023-02-11T11:36:57.939Z,7.17
2023-02-11T11:37:59.951Z,7.21
2023-02-11T11:38:57.851Z,7.16
2023-02-11T11:39:58.052Z,7.18
2023-02-11T11:40:57.843Z,7.08
2023-02-11T11:41:57.990Z,7.05
2023-02-11T11:42:57.951Z,7.21
2023-02-11T11:43:58.025Z,7.32
2023-02-11T11:44:59.081Z,7.38
2023-02-11T11:45:58.082Z,7.34
2023-02-11T11:46:57.893Z,7.36
2023-02-11T11:47:58.057Z,7.35
2023-02-11T11:48:57.972Z,7.34
2023-02-11T11:49:58.080Z,7.44
2023-02-11T11:50:57.798Z,7.49
2023-02-11T11:51:57.679Z,7.57
2023-02-11T11:52:57.880Z,7.54
2023-02-11T11:53:58.530Z,7.60
2023-02-11T11:54:57.969Z,7.62
2023-02-11T11:55:59.743Z,7.62
2023-02-11T11:56:58.447Z,7.60
2023-02-11T11:57:57.730Z,7.41
2023-02-11T11:58:57.839Z,7.47
2023-02-11T11:59:57.800Z,7.36
2023-02-11T12:00:57.891Z,7.29
2023-02-11T12:02:11.662Z,7.34
2023-02-11T12:02:57.775Z,7.32
2023-02-11T12:03:57.901Z,7.31
2023-02-11T12:04:57.942Z,7.13
2023-02-11T12:05:57.783Z,7.16
2023-02-11T12:06:57.789Z,7.14
2023-02-11T12:07:57.642Z,7.03
2023-02-11T12:08:57.513Z,6.95
2023-02-11T12:09:58.031Z,6.95
2023-02-11T12:10:58.000Z,7.02
2023-02-11T12:11:57.765Z,6.99
2023-02-11T12:12:57.547Z,6.98
2023-02-11T12:13:58.722Z,6.95
2023-02-11T12:14:58.502Z,7.02
2023-02-11T12:15:57.777Z,7.10
2023-02-11T12:16:57.532Z,7.03
2023-02-11T12:17:57.630Z,7.08
2023-02-11T12:18:57.540Z,6.93
2023-02-11T12:19:57.593Z,6.89
2023-02-11T12:20:57.888Z,7.03
2023-02-11T12:21:57.511Z,6.99
2023-02-11T12:22:57.593Z,6.85
2023-02-11T12:23:57.360Z,6.89
2023-02-11T12:24:57.597Z,6.93
2023-02-11T12:25:57.389Z,7.00
2023-02-11T12:26:57.601Z,7.28
2023-02-11T12:27:57.517Z,7.29
2023-02-11T12:28:57.502Z,7.34
2023-02-11T12:30:03.540Z,7.23
2023-02-11T12:30:57.622Z,7.23
2023-02-11T12:31:57.542Z,7.23
2023-02-11T12:32:57.956Z,7.08
2023-02-11T12:33:57.402Z,7.13
2023-02-11T12:34:57.892Z,7.20
2023-02-11T12:35:57.355Z,7.31
2023-02-11T12:36:57.312Z,7.47
2023-02-11T12:37:57.182Z,7.50
2023-02-11T12:38:57.227Z,7.49
2023-02-11T12:39:57.342Z,7.52
2023-02-11T12:40:57.253Z,7.52
2023-02-11T12:41:57.392Z,7.62
2023-02-11T12:42:59.342Z,7.75
2023-02-11T12:43:57.463Z,7.84
2023-02-11T12:44:57.215Z,7.84
2023-02-11T12:45:57.578Z,7.90
2023-02-11T12:46:57.201Z,7.88
2023-02-11T12:47:57.365Z,7.86
2023-02-11T12:48:57.212Z,7.83
2023-02-11T12:49:57.472Z,7.80
2023-02-11T12:50:57.205Z,7.59
2023-02-11T12:51:57.011Z,7.52
2023-02-11T12:52:57.213Z,7.36
2023-02-11T12:53:57.185Z,7.23
2023-02-11T12:54:57.406Z,7.21
2023-02-11T12:55:58.093Z,7.21
2023-02-11T12:56:57.472Z,7.16
2023-02-11T12:57:57.192Z,7.00
2023-02-11T12:58:57.267Z,7.03
2023-02-11T12:59:57.092Z,7.08
2023-02-11T13:00:57.587Z,6.96
2023-02-11T13:01:57.670Z,6.92
2023-02-11T13:02:57.144Z,7.05
2023-02-11T13:03:58.084Z,7.03
2023-02-11T13:04:57.154Z,6.95
2023-02-11T13:05:57.211Z,6.93